sensor_id;sensor_type;location;lat;lon;timestamp;P1;durP1;ratioP1;P2;durP2;ratioP2
81936;SDS011;71432;56.558;9.036;2024-01-10T00:02:18;2.30;;;1.60;;
81936;SDS011;71432;56.558;9.036;2024-01-10T00:04:43;2.47;;;1.25;;
81936;SDS011;71432;56.558;9.036;2024-01-10T00:07:09;2.30;;;1.60;;
81936;SDS011;71432;56.558;9.036;2024-01-10T00:09:34;2.03;;;1.40;;
81936;SDS011;71432;56.558;9.036;2024-01-10T00:11:59;2.37;;;1.73;;
81936;SDS011;71432;56.558;9.036;2024-01-10T00:14:25;2.78;;;1.67;;
81936;SDS011;71432;56.558;9.036;2024-01-10T00:16:50;2.80;;;1.60;;
81936;SDS011;71432;56.558;9.036;2024-01-10T00:19:15;2.38;;;1.30;;
81936;SDS011;71432;56.558;9.036;2024-01-10T00:21:40;3.13;;;1.80;;
81936;SDS011;71432;56.558;9.036;2024-01-10T00:24:06;2.80;;;1.43;;
81936;SDS011;71432;56.558;9.036;2024-01-10T00:26:31;2.72;;;1.50;;
81936;SDS011;71432;56.558;9.036;2024-01-10T00:28:56;2.30;;;1.52;;
81936;SDS011;71432;56.558;9.036;2024-01-10T00:31:22;2.87;;;1.80;;
81936;SDS011;71432;56.558;9.036;2024-01-10T00:33:47;2.35;;;1.42;;
81936;SDS011;71432;56.558;9.036;2024-01-10T00:36:12;3.00;;;1.60;;
81936;SDS011;71432;56.558;9.036;2024-01-10T00:38:38;4.97;;;2.13;;
81936;SDS011;71432;56.558;9.036;2024-01-10T00:41:03;2.23;;;1.60;;
81936;SDS011;71432;56.558;9.036;2024-01-10T00:43:28;4.68;;;1.88;;
81936;SDS011;71432;56.558;9.036;2024-01-10T00:45:54;2.80;;;1.47;;
81936;SDS011;71432;56.558;9.036;2024-01-10T00:48:19;2.13;;;1.27;;
81936;SDS011;71432;56.558;9.036;2024-01-10T00:50:44;3.13;;;1.50;;
81936;SDS011;71432;56.558;9.036;2024-01-10T00:53:10;2.92;;;1.60;;
81936;SDS011;71432;56.558;9.036;2024-01-10T00:55:35;2.47;;;1.70;;
81936;SDS011;71432;56.558;9.036;2024-01-10T00:58:01;2.40;;;1.73;;
81936;SDS011;71432;56.558;9.036;2024-01-10T01:00:26;3.25;;;1.88;;
81936;SDS011;71432;56.558;9.036;2024-01-10T01:02:52;5.07;;;2.30;;
81936;SDS011;71432;56.558;9.036;2024-01-10T01:05:18;1.83;;;1.30;;
81936;SDS011;71432;56.558;9.036;2024-01-10T01:07:43;3.50;;;1.45;;
81936;SDS011;71432;56.558;9.036;2024-01-10T01:10:08;4.00;;;1.60;;
81936;SDS011;71432;56.558;9.036;2024-01-10T01:12:34;3.25;;;1.60;;
81936;SDS011;71432;56.558;9.036;2024-01-10T01:14:59;3.45;;;1.63;;
81936;SDS011;71432;56.558;9.036;2024-01-10T01:17:25;2.72;;;1.45;;
81936;SDS011;71432;56.558;9.036;2024-01-10T01:19:50;2.33;;;1.80;;
81936;SDS011;71432;56.558;9.036;2024-01-10T01:22:15;2.63;;;1.58;;
81936;SDS011;71432;56.558;9.036;2024-01-10T01:24:41;2.70;;;1.45;;
81936;SDS011;71432;56.558;9.036;2024-01-10T01:27:06;5.07;;;1.92;;
81936;SDS011;71432;56.558;9.036;2024-01-10T01:29:31;3.53;;;1.63;;
81936;SDS011;71432;56.558;9.036;2024-01-10T01:31:57;3.28;;;1.80;;
81936;SDS011;71432;56.558;9.036;2024-01-10T01:34:22;2.47;;;1.50;;
81936;SDS011;71432;56.558;9.036;2024-01-10T01:36:47;2.83;;;1.50;;
81936;SDS011;71432;56.558;9.036;2024-01-10T01:39:13;2.85;;;1.60;;
81936;SDS011;71432;56.558;9.036;2024-01-10T01:41:39;2.75;;;1.48;;
81936;SDS011;71432;56.558;9.036;2024-01-10T01:44:04;3.03;;;1.65;;
81936;SDS011;71432;56.558;9.036;2024-01-10T01:46:30;3.15;;;1.50;;
81936;SDS011;71432;56.558;9.036;2024-01-10T01:48:56;2.47;;;1.30;;
81936;SDS011;71432;56.558;9.036;2024-01-10T01:51:21;3.25;;;1.40;;
81936;SDS011;71432;56.558;9.036;2024-01-10T01:53:48;2.25;;;1.17;;
81936;SDS011;71432;56.558;9.036;2024-01-10T01:56:14;3.45;;;1.80;;
81936;SDS011;71432;56.558;9.036;2024-01-10T01:58:41;2.58;;;1.50;;
81936;SDS011;71432;56.558;9.036;2024-01-10T02:01:08;3.60;;;1.60;;
81936;SDS011;71432;56.558;9.036;2024-01-10T02:03:35;2.80;;;1.40;;
81936;SDS011;71432;56.558;9.036;2024-01-10T02:06:00;4.20;;;1.45;;
81936;SDS011;71432;56.558;9.036;2024-01-10T02:08:29;2.47;;;1.13;;
81936;SDS011;71432;56.558;9.036;2024-01-10T02:10:58;2.90;;;1.27;;
81936;SDS011;71432;56.558;9.036;2024-01-10T02:13:24;3.65;;;1.92;;
81936;SDS011;71432;56.558;9.036;2024-01-10T02:15:49;2.38;;;1.23;;
81936;SDS011;71432;56.558;9.036;2024-01-10T02:18:15;2.22;;;1.20;;
81936;SDS011;71432;56.558;9.036;2024-01-10T02:20:43;2.85;;;1.60;;
81936;SDS011;71432;56.558;9.036;2024-01-10T02:23:08;2.67;;;1.38;;
81936;SDS011;71432;56.558;9.036;2024-01-10T02:25:34;1.90;;;1.20;;
81936;SDS011;71432;56.558;9.036;2024-01-10T02:28:00;2.35;;;1.40;;
81936;SDS011;71432;56.558;9.036;2024-01-10T02:30:25;2.08;;;1.30;;
81936;SDS011;71432;56.558;9.036;2024-01-10T02:32:50;3.40;;;1.35;;
81936;SDS011;71432;56.558;9.036;2024-01-10T02:35:16;2.10;;;1.03;;
81936;SDS011;71432;56.558;9.036;2024-01-10T02:37:41;3.08;;;1.17;;
81936;SDS011;71432;56.558;9.036;2024-01-10T02:40:06;2.93;;;1.90;;
81936;SDS011;71432;56.558;9.036;2024-01-10T02:42:32;2.28;;;1.20;;
81936;SDS011;71432;56.558;9.036;2024-01-10T02:44:59;1.58;;;1.10;;
81936;SDS011;71432;56.558;9.036;2024-01-10T02:47:24;2.70;;;1.33;;
81936;SDS011;71432;56.558;9.036;2024-01-10T02:49:50;2.07;;;1.00;;
81936;SDS011;71432;56.558;9.036;2024-01-10T02:52:15;3.03;;;1.67;;
81936;SDS011;71432;56.558;9.036;2024-01-10T02:54:40;2.60;;;1.35;;
81936;SDS011;71432;56.558;9.036;2024-01-10T02:57:06;2.78;;;1.42;;
81936;SDS011;71432;56.558;9.036;2024-01-10T02:59:31;1.83;;;1.20;;
81936;SDS011;71432;56.558;9.036;2024-01-10T03:01:57;3.07;;;1.30;;
81936;SDS011;71432;56.558;9.036;2024-01-10T03:04:22;2.57;;;1.30;;
81936;SDS011;71432;56.558;9.036;2024-01-10T03:06:47;1.60;;;1.10;;
81936;SDS011;71432;56.558;9.036;2024-01-10T03:09:12;1.70;;;1.30;;
81936;SDS011;71432;56.558;9.036;2024-01-10T03:11:38;1.83;;;1.45;;
81936;SDS011;71432;56.558;9.036;2024-01-10T03:14:07;2.47;;;1.33;;
81936;SDS011;71432;56.558;9.036;2024-01-10T03:16:34;1.98;;;1.00;;
81936;SDS011;71432;56.558;9.036;2024-01-10T03:18:59;2.45;;;1.40;;
81936;SDS011;71432;56.558;9.036;2024-01-10T03:21:25;2.85;;;1.83;;
81936;SDS011;71432;56.558;9.036;2024-01-10T03:23:52;2.83;;;1.20;;
81936;SDS011;71432;56.558;9.036;2024-01-10T03:26:19;2.30;;;1.27;;
81936;SDS011;71432;56.558;9.036;2024-01-10T03:28:45;1.73;;;1.17;;
81936;SDS011;71432;56.558;9.036;2024-01-10T03:31:10;1.60;;;1.27;;
81936;SDS011;71432;56.558;9.036;2024-01-10T03:33:36;2.35;;;1.17;;
81936;SDS011;71432;56.558;9.036;2024-01-10T03:36:01;1.60;;;1.20;;
81936;SDS011;71432;56.558;9.036;2024-01-10T03:38:27;2.25;;;1.77;;
81936;SDS011;71432;56.558;9.036;2024-01-10T03:40:53;1.55;;;1.25;;
81936;SDS011;71432;56.558;9.036;2024-01-10T03:43:18;2.10;;;1.27;;
81936;SDS011;71432;56.558;9.036;2024-01-10T03:45:43;1.83;;;1.30;;
81936;SDS011;71432;56.558;9.036;2024-01-10T03:48:09;2.10;;;1.20;;
81936;SDS011;71432;56.558;9.036;2024-01-10T03:50:34;1.83;;;1.30;;
81936;SDS011;71432;56.558;9.036;2024-01-10T03:52:59;1.80;;;1.20;;
81936;SDS011;71432;56.558;9.036;2024-01-10T03:55:25;2.40;;;1.30;;
81936;SDS011;71432;56.558;9.036;2024-01-10T03:57:50;1.75;;;1.30;;
81936;SDS011;71432;56.558;9.036;2024-01-10T04:00:16;1.73;;;1.15;;
81936;SDS011;71432;56.558;9.036;2024-01-10T04:02:41;1.88;;;1.00;;
81936;SDS011;71432;56.558;9.036;2024-01-10T04:05:07;1.73;;;1.30;;
81936;SDS011;71432;56.558;9.036;2024-01-10T04:07:34;1.67;;;1.08;;
81936;SDS011;71432;56.558;9.036;2024-01-10T04:10:00;1.67;;;1.10;;
81936;SDS011;71432;56.558;9.036;2024-01-10T04:12:25;1.67;;;1.00;;
81936;SDS011;71432;56.558;9.036;2024-01-10T04:14:50;1.73;;;1.10;;
81936;SDS011;71432;56.558;9.036;2024-01-10T04:17:16;1.40;;;1.03;;
81936;SDS011;71432;56.558;9.036;2024-01-10T04:19:41;1.70;;;1.10;;
81936;SDS011;71432;56.558;9.036;2024-01-10T04:22:06;1.90;;;1.33;;
81936;SDS011;71432;56.558;9.036;2024-01-10T04:24:32;1.70;;;1.17;;
81936;SDS011;71432;56.558;9.036;2024-01-10T04:26:57;1.27;;;1.13;;
81936;SDS011;71432;56.558;9.036;2024-01-10T04:29:22;1.83;;;1.27;;
81936;SDS011;71432;56.558;9.036;2024-01-10T04:31:48;1.47;;;1.10;;
81936;SDS011;71432;56.558;9.036;2024-01-10T04:34:13;1.60;;;1.20;;
81936;SDS011;71432;56.558;9.036;2024-01-10T04:36:39;1.65;;;0.88;;
81936;SDS011;71432;56.558;9.036;2024-01-10T04:39:04;1.47;;;1.03;;
81936;SDS011;71432;56.558;9.036;2024-01-10T04:41:29;1.43;;;1.00;;
81936;SDS011;71432;56.558;9.036;2024-01-10T04:43:55;1.95;;;1.00;;
81936;SDS011;71432;56.558;9.036;2024-01-10T04:46:20;2.30;;;1.40;;
81936;SDS011;71432;56.558;9.036;2024-01-10T04:48:45;1.48;;;1.00;;
81936;SDS011;71432;56.558;9.036;2024-01-10T04:51:11;1.70;;;1.00;;
81936;SDS011;71432;56.558;9.036;2024-01-10T04:53:36;1.98;;;1.40;;
81936;SDS011;71432;56.558;9.036;2024-01-10T04:56:02;1.43;;;0.67;;
81936;SDS011;71432;56.558;9.036;2024-01-10T04:58:27;1.45;;;0.88;;
81936;SDS011;71432;56.558;9.036;2024-01-10T05:00:54;0.98;;;0.88;;
81936;SDS011;71432;56.558;9.036;2024-01-10T05:03:20;3.67;;;0.95;;
81936;SDS011;71432;56.558;9.036;2024-01-10T05:05:45;1.93;;;0.90;;
81936;SDS011;71432;56.558;9.036;2024-01-10T05:08:10;1.70;;;0.90;;
81936;SDS011;71432;56.558;9.036;2024-01-10T05:10:36;1.70;;;1.20;;
81936;SDS011;71432;56.558;9.036;2024-01-10T05:13:01;1.83;;;1.00;;
81936;SDS011;71432;56.558;9.036;2024-01-10T05:15:26;1.47;;;1.03;;
81936;SDS011;71432;56.558;9.036;2024-01-10T05:17:51;1.85;;;1.13;;
81936;SDS011;71432;56.558;9.036;2024-01-10T05:20:17;1.63;;;1.17;;
81936;SDS011;71432;56.558;9.036;2024-01-10T05:22:44;1.88;;;0.70;;
81936;SDS011;71432;56.558;9.036;2024-01-10T05:27:34;4.32;;;1.42;;
81936;SDS011;71432;56.558;9.036;2024-01-10T05:30:00;1.30;;;0.90;;
81936;SDS011;71432;56.558;9.036;2024-01-10T05:32:25;3.85;;;1.42;;
81936;SDS011;71432;56.558;9.036;2024-01-10T05:34:51;4.97;;;0.73;;
81936;SDS011;71432;56.558;9.036;2024-01-10T05:37:17;3.20;;;0.98;;
81936;SDS011;71432;56.558;9.036;2024-01-10T05:39:42;1.20;;;0.82;;
81936;SDS011;71432;56.558;9.036;2024-01-10T05:42:08;1.73;;;1.10;;
81936;SDS011;71432;56.558;9.036;2024-01-10T05:44:33;4.90;;;1.07;;
81936;SDS011;71432;56.558;9.036;2024-01-10T05:46:58;4.70;;;1.23;;
81936;SDS011;71432;56.558;9.036;2024-01-10T05:49:24;1.23;;;0.90;;
81936;SDS011;71432;56.558;9.036;2024-01-10T05:51:50;2.13;;;1.20;;
81936;SDS011;71432;56.558;9.036;2024-01-10T05:54:15;2.65;;;1.13;;
81936;SDS011;71432;56.558;9.036;2024-01-10T05:56:42;6.22;;;1.42;;
81936;SDS011;71432;56.558;9.036;2024-01-10T05:59:08;2.75;;;1.00;;
81936;SDS011;71432;56.558;9.036;2024-01-10T06:01:33;1.48;;;0.80;;
81936;SDS011;71432;56.558;9.036;2024-01-10T06:03:58;10.85;;;1.23;;
81936;SDS011;71432;56.558;9.036;2024-01-10T06:06:24;5.32;;;1.35;;
81936;SDS011;71432;56.558;9.036;2024-01-10T06:08:49;5.45;;;1.27;;
81936;SDS011;71432;56.558;9.036;2024-01-10T06:11:15;6.10;;;1.00;;
81936;SDS011;71432;56.558;9.036;2024-01-10T06:13:40;2.22;;;1.00;;
81936;SDS011;71432;56.558;9.036;2024-01-10T06:16:06;22.80;;;5.53;;
81936;SDS011;71432;56.558;9.036;2024-01-10T06:18:32;14.93;;;3.75;;
81936;SDS011;71432;56.558;9.036;2024-01-10T06:20:57;17.27;;;3.87;;
81936;SDS011;71432;56.558;9.036;2024-01-10T06:23:23;17.38;;;4.05;;
81936;SDS011;71432;56.558;9.036;2024-01-10T06:25:48;23.80;;;5.30;;
81936;SDS011;71432;56.558;9.036;2024-01-10T06:28:13;30.50;;;6.32;;
81936;SDS011;71432;56.558;9.036;2024-01-10T06:30:39;41.50;;;6.23;;
81936;SDS011;71432;56.558;9.036;2024-01-10T06:33:04;26.05;;;5.00;;
81936;SDS011;71432;56.558;9.036;2024-01-10T06:35:31;24.70;;;5.90;;
81936;SDS011;71432;56.558;9.036;2024-01-10T06:37:57;23.50;;;5.90;;
81936;SDS011;71432;56.558;9.036;2024-01-10T06:40:22;22.65;;;6.22;;
81936;SDS011;71432;56.558;9.036;2024-01-10T06:42:48;28.92;;;6.03;;
81936;SDS011;71432;56.558;9.036;2024-01-10T06:45:13;23.73;;;5.20;;
81936;SDS011;71432;56.558;9.036;2024-01-10T06:47:39;19.55;;;5.85;;
81936;SDS011;71432;56.558;9.036;2024-01-10T06:50:04;18.20;;;5.43;;
81936;SDS011;71432;56.558;9.036;2024-01-10T06:52:31;24.45;;;6.68;;
81936;SDS011;71432;56.558;9.036;2024-01-10T06:54:57;17.65;;;5.05;;
81936;SDS011;71432;56.558;9.036;2024-01-10T06:57:22;20.33;;;5.55;;
81936;SDS011;71432;56.558;9.036;2024-01-10T06:59:47;20.35;;;5.72;;
81936;SDS011;71432;56.558;9.036;2024-01-10T07:02:13;16.65;;;4.97;;
81936;SDS011;71432;56.558;9.036;2024-01-10T07:04:39;16.88;;;4.97;;
81936;SDS011;71432;56.558;9.036;2024-01-10T07:07:04;15.00;;;5.32;;
81936;SDS011;71432;56.558;9.036;2024-01-10T07:09:30;12.80;;;4.13;;
81936;SDS011;71432;56.558;9.036;2024-01-10T07:11:56;14.45;;;4.05;;
81936;SDS011;71432;56.558;9.036;2024-01-10T07:14:21;16.67;;;4.93;;
81936;SDS011;71432;56.558;9.036;2024-01-10T07:16:46;15.70;;;5.43;;
81936;SDS011;71432;56.558;9.036;2024-01-10T07:19:12;14.50;;;4.25;;
81936;SDS011;71432;56.558;9.036;2024-01-10T07:21:39;15.43;;;4.63;;
81936;SDS011;71432;56.558;9.036;2024-01-10T07:24:05;16.58;;;4.53;;
81936;SDS011;71432;56.558;9.036;2024-01-10T07:26:31;13.32;;;4.88;;
81936;SDS011;71432;56.558;9.036;2024-01-10T07:28:56;14.90;;;4.17;;
81936;SDS011;71432;56.558;9.036;2024-01-10T07:31:21;12.97;;;4.87;;
81936;SDS011;71432;56.558;9.036;2024-01-10T07:33:48;13.32;;;4.22;;
81936;SDS011;71432;56.558;9.036;2024-01-10T07:36:13;12.23;;;4.47;;
81936;SDS011;71432;56.558;9.036;2024-01-10T07:38:39;15.73;;;4.47;;
81936;SDS011;71432;56.558;9.036;2024-01-10T07:41:04;12.15;;;3.85;;
81936;SDS011;71432;56.558;9.036;2024-01-10T07:43:29;16.77;;;4.40;;
81936;SDS011;71432;56.558;9.036;2024-01-10T07:45:54;12.97;;;3.93;;
81936;SDS011;71432;56.558;9.036;2024-01-10T07:48:20;15.18;;;4.45;;
81936;SDS011;71432;56.558;9.036;2024-01-10T07:50:45;8.68;;;3.35;;
81936;SDS011;71432;56.558;9.036;2024-01-10T07:53:10;12.07;;;3.40;;
81936;SDS011;71432;56.558;9.036;2024-01-10T07:55:36;13.02;;;3.42;;
81936;SDS011;71432;56.558;9.036;2024-01-10T07:58:01;9.07;;;3.95;;
81936;SDS011;71432;56.558;9.036;2024-01-10T08:00:26;15.60;;;4.63;;
81936;SDS011;71432;56.558;9.036;2024-01-10T08:02:52;14.52;;;3.88;;
81936;SDS011;71432;56.558;9.036;2024-01-10T08:05:18;10.77;;;3.38;;
81936;SDS011;71432;56.558;9.036;2024-01-10T08:07:46;10.43;;;3.83;;
81936;SDS011;71432;56.558;9.036;2024-01-10T08:10:11;12.40;;;3.25;;
81936;SDS011;71432;56.558;9.036;2024-01-10T08:12:38;10.50;;;3.65;;
81936;SDS011;71432;56.558;9.036;2024-01-10T08:15:04;11.90;;;3.33;;
81936;SDS011;71432;56.558;9.036;2024-01-10T08:17:31;13.35;;;3.80;;
81936;SDS011;71432;56.558;9.036;2024-01-10T08:19:56;10.75;;;4.70;;
81936;SDS011;71432;56.558;9.036;2024-01-10T08:22:22;11.93;;;3.80;;
81936;SDS011;71432;56.558;9.036;2024-01-10T08:24:48;13.77;;;3.95;;
81936;SDS011;71432;56.558;9.036;2024-01-10T08:27:13;12.27;;;3.97;;
81936;SDS011;71432;56.558;9.036;2024-01-10T08:29:38;10.13;;;3.20;;
81936;SDS011;71432;56.558;9.036;2024-01-10T08:32:04;9.30;;;3.28;;
81936;SDS011;71432;56.558;9.036;2024-01-10T08:34:30;10.27;;;3.05;;
81936;SDS011;71432;56.558;9.036;2024-01-10T08:36:55;12.15;;;3.00;;
81936;SDS011;71432;56.558;9.036;2024-01-10T08:39:20;11.52;;;3.97;;
81936;SDS011;71432;56.558;9.036;2024-01-10T08:41:47;8.65;;;3.38;;
81936;SDS011;71432;56.558;9.036;2024-01-10T08:44:12;8.48;;;3.63;;
81936;SDS011;71432;56.558;9.036;2024-01-10T08:46:38;8.45;;;3.40;;
81936;SDS011;71432;56.558;9.036;2024-01-10T08:49:04;12.60;;;3.15;;
81936;SDS011;71432;56.558;9.036;2024-01-10T08:51:29;9.95;;;3.65;;
81936;SDS011;71432;56.558;9.036;2024-01-10T08:53:55;12.48;;;3.67;;
81936;SDS011;71432;56.558;9.036;2024-01-10T08:56:21;10.77;;;3.95;;
81936;SDS011;71432;56.558;9.036;2024-01-10T08:58:47;12.15;;;3.25;;
81936;SDS011;71432;56.558;9.036;2024-01-10T09:01:12;8.27;;;2.92;;
81936;SDS011;71432;56.558;9.036;2024-01-10T09:03:38;11.63;;;3.05;;
81936;SDS011;71432;56.558;9.036;2024-01-10T09:06:04;10.57;;;2.90;;
81936;SDS011;71432;56.558;9.036;2024-01-10T09:08:30;10.40;;;3.53;;
81936;SDS011;71432;56.558;9.036;2024-01-10T09:10:55;8.68;;;3.22;;
81936;SDS011;71432;56.558;9.036;2024-01-10T09:13:21;6.97;;;3.00;;
81936;SDS011;71432;56.558;9.036;2024-01-10T09:15:46;8.63;;;3.30;;
81936;SDS011;71432;56.558;9.036;2024-01-10T09:18:12;8.32;;;3.53;;
81936;SDS011;71432;56.558;9.036;2024-01-10T09:20:37;8.70;;;3.10;;
81936;SDS011;71432;56.558;9.036;2024-01-10T09:23:03;8.38;;;2.65;;
81936;SDS011;71432;56.558;9.036;2024-01-10T09:25:28;11.63;;;3.20;;
81936;SDS011;71432;56.558;9.036;2024-01-10T09:27:54;6.65;;;2.67;;
81936;SDS011;71432;56.558;9.036;2024-01-10T09:30:20;7.22;;;2.63;;
81936;SDS011;71432;56.558;9.036;2024-01-10T09:32:45;7.05;;;3.33;;
81936;SDS011;71432;56.558;9.036;2024-01-10T09:35:11;6.85;;;2.15;;
81936;SDS011;71432;56.558;9.036;2024-01-10T09:37:37;9.52;;;3.83;;
81936;SDS011;71432;56.558;9.036;2024-01-10T09:40:03;7.25;;;3.25;;
81936;SDS011;71432;56.558;9.036;2024-01-10T09:42:31;9.07;;;3.22;;
81936;SDS011;71432;56.558;9.036;2024-01-10T09:44:58;10.07;;;3.83;;
81936;SDS011;71432;56.558;9.036;2024-01-10T09:47:24;8.23;;;2.60;;
81936;SDS011;71432;56.558;9.036;2024-01-10T09:52:19;5.55;;;2.08;;
81936;SDS011;71432;56.558;9.036;2024-01-10T09:54:57;7.95;;;2.63;;
81936;SDS011;71432;56.558;9.036;2024-01-10T09:57:23;5.97;;;2.38;;
81936;SDS011;71432;56.558;9.036;2024-01-10T09:59:49;6.30;;;3.00;;
81936;SDS011;71432;56.558;9.036;2024-01-10T10:02:16;8.70;;;2.65;;
81936;SDS011;71432;56.558;9.036;2024-01-10T10:04:44;7.03;;;2.60;;
81936;SDS011;71432;56.558;9.036;2024-01-10T10:07:19;4.38;;;1.85;;
81936;SDS011;71432;56.558;9.036;2024-01-10T10:09:44;6.00;;;1.70;;
81936;SDS011;71432;56.558;9.036;2024-01-10T10:12:10;6.30;;;1.73;;
81936;SDS011;71432;56.558;9.036;2024-01-10T10:14:35;7.97;;;2.13;;
81936;SDS011;71432;56.558;9.036;2024-01-10T10:17:13;5.80;;;2.47;;
81936;SDS011;71432;56.558;9.036;2024-01-10T10:19:39;4.93;;;2.40;;
81936;SDS011;71432;56.558;9.036;2024-01-10T10:22:08;8.17;;;2.23;;
81936;SDS011;71432;56.558;9.036;2024-01-10T10:24:34;11.00;;;2.05;;
81936;SDS011;71432;56.558;9.036;2024-01-10T10:27:00;5.70;;;1.90;;
81936;SDS011;71432;56.558;9.036;2024-01-10T10:29:25;3.50;;;2.13;;
81936;SDS011;71432;56.558;9.036;2024-01-10T10:31:51;3.90;;;1.90;;
81936;SDS011;71432;56.558;9.036;2024-01-10T10:34:20;7.53;;;2.00;;
81936;SDS011;71432;56.558;9.036;2024-01-10T10:36:47;7.60;;;2.35;;
81936;SDS011;71432;56.558;9.036;2024-01-10T10:39:15;4.70;;;1.58;;
81936;SDS011;71432;56.558;9.036;2024-01-10T10:41:41;4.15;;;2.05;;
81936;SDS011;71432;56.558;9.036;2024-01-10T10:44:08;2.85;;;1.80;;
81936;SDS011;71432;56.558;9.036;2024-01-10T10:46:35;4.68;;;2.53;;
81936;SDS011;71432;56.558;9.036;2024-01-10T10:49:04;4.25;;;1.70;;
81936;SDS011;71432;56.558;9.036;2024-01-10T10:51:34;5.70;;;1.90;;
81936;SDS011;71432;56.558;9.036;2024-01-10T10:54:02;4.15;;;1.40;;
81936;SDS011;71432;56.558;9.036;2024-01-10T10:56:29;4.80;;;1.73;;
81936;SDS011;71432;56.558;9.036;2024-01-10T10:58:59;4.32;;;1.58;;
81936;SDS011;71432;56.558;9.036;2024-01-10T11:01:26;2.60;;;1.80;;
81936;SDS011;71432;56.558;9.036;2024-01-10T11:03:52;7.43;;;1.15;;
81936;SDS011;71432;56.558;9.036;2024-01-10T11:06:19;3.70;;;1.70;;
81936;SDS011;71432;56.558;9.036;2024-01-10T11:14:05;5.03;;;1.98;;
81936;SDS011;71432;56.558;9.036;2024-01-10T11:24:51;2.17;;;1.27;;
81936;SDS011;71432;56.558;9.036;2024-01-10T11:27:17;3.50;;;1.80;;
81936;SDS011;71432;56.558;9.036;2024-01-10T11:29:43;3.10;;;1.50;;
81936;SDS011;71432;56.558;9.036;2024-01-10T11:32:17;4.45;;;1.20;;
81936;SDS011;71432;56.558;9.036;2024-01-10T11:34:55;5.40;;;1.50;;
81936;SDS011;71432;56.558;9.036;2024-01-10T11:37:23;3.70;;;1.30;;
81936;SDS011;71432;56.558;9.036;2024-01-10T11:39:54;3.10;;;1.70;;
81936;SDS011;71432;56.558;9.036;2024-01-10T11:42:23;2.80;;;1.88;;
81936;SDS011;71432;56.558;9.036;2024-01-10T11:44:50;6.35;;;1.38;;
81936;SDS011;71432;56.558;9.036;2024-01-10T11:47:16;3.55;;;1.50;;
81936;SDS011;71432;56.558;9.036;2024-01-10T11:49:53;3.63;;;1.50;;
81936;SDS011;71432;56.558;9.036;2024-01-10T11:52:21;3.05;;;1.17;;
81936;SDS011;71432;56.558;9.036;2024-01-10T11:54:48;3.97;;;1.20;;
81936;SDS011;71432;56.558;9.036;2024-01-10T11:57:14;2.50;;;1.20;;
81936;SDS011;71432;56.558;9.036;2024-01-10T11:59:45;2.88;;;1.40;;
81936;SDS011;71432;56.558;9.036;2024-01-10T12:02:11;2.20;;;1.23;;
81936;SDS011;71432;56.558;9.036;2024-01-10T12:04:37;6.70;;;1.60;;
81936;SDS011;71432;56.558;9.036;2024-01-10T12:07:03;4.65;;;1.70;;
81936;SDS011;71432;56.558;9.036;2024-01-10T12:09:31;2.53;;;1.20;;
81936;SDS011;71432;56.558;9.036;2024-01-10T12:11:57;3.15;;;1.23;;
81936;SDS011;71432;56.558;9.036;2024-01-10T12:14:23;3.30;;;1.50;;
81936;SDS011;71432;56.558;9.036;2024-01-10T12:16:50;2.00;;;1.42;;
81936;SDS011;71432;56.558;9.036;2024-01-10T12:19:16;4.75;;;1.45;;
81936;SDS011;71432;56.558;9.036;2024-01-10T12:21:42;3.13;;;1.90;;
81936;SDS011;71432;56.558;9.036;2024-01-10T12:24:07;3.72;;;1.90;;
81936;SDS011;71432;56.558;9.036;2024-01-10T12:26:32;2.80;;;1.45;;
81936;SDS011;71432;56.558;9.036;2024-01-10T12:28:59;3.13;;;1.40;;
81936;SDS011;71432;56.558;9.036;2024-01-10T12:31:28;2.20;;;1.13;;
81936;SDS011;71432;56.558;9.036;2024-01-10T12:33:55;6.10;;;1.63;;
81936;SDS011;71432;56.558;9.036;2024-01-10T12:38:46;2.35;;;1.52;;
81936;SDS011;71432;56.558;9.036;2024-01-10T12:41:12;2.90;;;1.50;;
81936;SDS011;71432;56.558;9.036;2024-01-10T12:43:40;2.83;;;1.48;;
81936;SDS011;71432;56.558;9.036;2024-01-10T12:46:06;3.17;;;1.83;;
81936;SDS011;71432;56.558;9.036;2024-01-10T12:51:06;1.58;;;0.98;;
81936;SDS011;71432;56.558;9.036;2024-01-10T12:53:36;1.67;;;0.98;;
81936;SDS011;71432;56.558;9.036;2024-01-10T12:56:03;2.15;;;1.35;;
81936;SDS011;71432;56.558;9.036;2024-01-10T13:00:55;2.67;;;1.17;;
81936;SDS011;71432;56.558;9.036;2024-01-10T13:03:21;1.67;;;1.00;;
81936;SDS011;71432;56.558;9.036;2024-01-10T13:05:46;2.08;;;1.30;;
81936;SDS011;71432;56.558;9.036;2024-01-10T13:08:12;1.67;;;1.00;;
81936;SDS011;71432;56.558;9.036;2024-01-10T13:10:38;2.42;;;1.40;;
81936;SDS011;71432;56.558;9.036;2024-01-10T13:13:03;2.13;;;1.15;;
81936;SDS011;71432;56.558;9.036;2024-01-10T13:15:29;2.75;;;1.30;;
81936;SDS011;71432;56.558;9.036;2024-01-10T13:17:55;2.47;;;0.93;;
81936;SDS011;71432;56.558;9.036;2024-01-10T13:20:21;1.30;;;1.00;;
81936;SDS011;71432;56.558;9.036;2024-01-10T13:22:46;3.27;;;1.27;;
81936;SDS011;71432;56.558;9.036;2024-01-10T13:25:12;3.70;;;1.27;;
81936;SDS011;71432;56.558;9.036;2024-01-10T13:27:37;2.60;;;1.05;;
81936;SDS011;71432;56.558;9.036;2024-01-10T13:30:03;1.75;;;1.10;;
81936;SDS011;71432;56.558;9.036;2024-01-10T13:32:30;2.40;;;1.50;;
81936;SDS011;71432;56.558;9.036;2024-01-10T13:34:56;1.63;;;1.00;;
81936;SDS011;71432;56.558;9.036;2024-01-10T13:37:22;2.17;;;1.30;;
81936;SDS011;71432;56.558;9.036;2024-01-10T13:39:48;2.03;;;1.48;;
81936;SDS011;71432;56.558;9.036;2024-01-10T13:42:14;3.08;;;0.90;;
81936;SDS011;71432;56.558;9.036;2024-01-10T13:44:39;2.05;;;1.48;;
81936;SDS011;71432;56.558;9.036;2024-01-10T13:47:05;2.20;;;1.42;;
81936;SDS011;71432;56.558;9.036;2024-01-10T13:49:30;3.35;;;1.30;;
81936;SDS011;71432;56.558;9.036;2024-01-10T13:51:55;4.28;;;1.70;;
81936;SDS011;71432;56.558;9.036;2024-01-10T13:54:21;2.42;;;1.13;;
81936;SDS011;71432;56.558;9.036;2024-01-10T13:56:46;3.35;;;1.15;;
81936;SDS011;71432;56.558;9.036;2024-01-10T13:59:12;1.65;;;1.10;;
81936;SDS011;71432;56.558;9.036;2024-01-10T14:01:38;4.03;;;1.40;;
81936;SDS011;71432;56.558;9.036;2024-01-10T14:04:03;2.13;;;1.17;;
81936;SDS011;71432;56.558;9.036;2024-01-10T14:06:28;5.82;;;1.75;;
81936;SDS011;71432;56.558;9.036;2024-01-10T14:08:54;2.13;;;1.17;;
81936;SDS011;71432;56.558;9.036;2024-01-10T14:11:19;3.47;;;1.98;;
81936;SDS011;71432;56.558;9.036;2024-01-10T14:13:45;5.70;;;1.48;;
81936;SDS011;71432;56.558;9.036;2024-01-10T14:16:10;4.95;;;1.42;;
81936;SDS011;71432;56.558;9.036;2024-01-10T14:18:36;4.90;;;1.70;;
81936;SDS011;71432;56.558;9.036;2024-01-10T14:21:01;2.95;;;1.33;;
81936;SDS011;71432;56.558;9.036;2024-01-10T14:23:27;2.20;;;1.58;;
81936;SDS011;71432;56.558;9.036;2024-01-10T14:25:52;4.10;;;1.43;;
81936;SDS011;71432;56.558;9.036;2024-01-10T14:28:18;2.53;;;1.27;;
81936;SDS011;71432;56.558;9.036;2024-01-10T14:30:45;3.47;;;1.50;;
81936;SDS011;71432;56.558;9.036;2024-01-10T14:33:11;6.90;;;1.20;;
81936;SDS011;71432;56.558;9.036;2024-01-10T14:35:38;2.60;;;1.50;;
81936;SDS011;71432;56.558;9.036;2024-01-10T14:38:05;3.28;;;1.55;;
81936;SDS011;71432;56.558;9.036;2024-01-10T14:40:30;2.83;;;1.88;;
81936;SDS011;71432;56.558;9.036;2024-01-10T14:42:55;4.40;;;1.42;;
81936;SDS011;71432;56.558;9.036;2024-01-10T14:45:21;4.70;;;1.53;;
81936;SDS011;71432;56.558;9.036;2024-01-10T14:47:46;3.97;;;2.22;;
81936;SDS011;71432;56.558;9.036;2024-01-10T14:50:14;2.38;;;1.33;;
81936;SDS011;71432;56.558;9.036;2024-01-10T14:52:40;3.42;;;1.65;;
81936;SDS011;71432;56.558;9.036;2024-01-10T14:55:05;4.28;;;1.70;;
81936;SDS011;71432;56.558;9.036;2024-01-10T14:57:31;2.75;;;0.98;;
81936;SDS011;71432;56.558;9.036;2024-01-10T14:59:56;3.03;;;1.20;;
81936;SDS011;71432;56.558;9.036;2024-01-10T15:02:21;3.15;;;1.50;;
81936;SDS011;71432;56.558;9.036;2024-01-10T15:04:47;4.03;;;1.40;;